Terminal Aerodrome Forecast
Issued by NWS

Home | Current Version | Previous Version | Text Only | Print | Product List | Glossary On
Versions: 1 2 3 4 5 6 7 8 9 10 11 12 13 14 15 16 17 18 19 20 21 22 23 24 25 26 27
330
FTUS43 KDLH 091125
TAFHYR
TAF
KHYR 091125Z 0912/1012 33008KT P6SM SCT015 OVC080
      TEMPO 0912/0916 5SM -SN BKN018
     FM091600 34008G16KT P6SM SCT020 BKN040
     FM092000 33010G18KT P6SM SCT025
     FM100800 34008KT P6SM SKC=

USA.gov is the U.S. government's official web portal to all federal, state and local government web resources and services.